sensor_id;sensor_type;location;lat;lon;timestamp;pressure;altitude;pressure_sealevel;temperature;humidity
77572;BME280;67214;47.454;18.966;2023-04-23T00:00:09;100033.68;;;7.84;71.23
77572;BME280;67214;47.454;18.966;2023-04-23T00:02:39;100033.44;;;7.81;71.70
77572;BME280;67214;47.454;18.966;2023-04-23T00:05:08;100020.23;;;7.81;70.55
77572;BME280;67214;47.454;18.966;2023-04-23T00:07:38;100024.89;;;7.78;71.07
77572;BME280;67214;47.454;18.966;2023-04-23T00:10:06;100010.72;;;7.79;70.46
77572;BME280;67214;47.454;18.966;2023-04-23T00:12:35;100029.05;;;7.75;70.42
77572;BME280;67214;47.454;18.966;2023-04-23T00:15:04;100030.12;;;7.72;71.04
77572;BME280;67214;47.454;18.966;2023-04-23T00:17:32;100025.53;;;7.69;71.35
77572;BME280;67214;47.454;18.966;2023-04-23T00:19:59;100024.84;;;7.72;70.86
77572;BME280;67214;47.454;18.966;2023-04-23T00:22:27;100029.22;;;7.66;70.85
77572;BME280;67214;47.454;18.966;2023-04-23T00:24:55;100028.88;;;7.65;70.55
77572;BME280;67214;47.454;18.966;2023-04-23T00:27:22;100024.86;;;7.60;71.57
77572;BME280;67214;47.454;18.966;2023-04-23T00:29:50;100020.66;;;7.57;70.53
77572;BME280;67214;47.454;18.966;2023-04-23T00:32:17;100020.33;;;7.62;71.06
77572;BME280;67214;47.454;18.966;2023-04-23T00:34:44;100016.64;;;7.52;72.22
77572;BME280;67214;47.454;18.966;2023-04-23T00:37:14;100020.38;;;7.42;71.52
77572;BME280;67214;47.454;18.966;2023-04-23T00:39:42;100014.23;;;7.36;71.62
77572;BME280;67214;47.454;18.966;2023-04-23T00:42:09;100013.86;;;7.35;71.88
77572;BME280;67214;47.454;18.966;2023-04-23T00:44:38;100013.70;;;7.31;72.06
77572;BME280;67214;47.454;18.966;2023-04-23T00:47:09;100007.23;;;7.29;71.61
77572;BME280;67214;47.454;18.966;2023-04-23T00:49:37;100010.12;;;7.32;71.30
77572;BME280;67214;47.454;18.966;2023-04-23T00:52:05;100014.14;;;7.25;71.31
77572;BME280;67214;47.454;18.966;2023-04-23T00:54:33;100011.50;;;7.25;72.25
77572;BME280;67214;47.454;18.966;2023-04-23T00:57:00;100007.27;;;7.22;71.87
77572;BME280;67214;47.454;18.966;2023-04-23T00:59:29;100016.24;;;7.20;72.03
77572;BME280;67214;47.454;18.966;2023-04-23T01:01:58;100013.55;;;7.14;71.82
77572;BME280;67214;47.454;18.966;2023-04-23T01:04:27;100008.55;;;7.17;71.62
77572;BME280;67214;47.454;18.966;2023-04-23T01:06:57;100004.22;;;7.16;71.57
77572;BME280;67214;47.454;18.966;2023-04-23T01:09:26;100005.53;;;7.16;71.66
77572;BME280;67214;47.454;18.966;2023-04-23T01:11:54;100004.94;;;7.18;72.34
77572;BME280;67214;47.454;18.966;2023-04-23T01:14:23;100009.17;;;7.08;72.43
77572;BME280;67214;47.454;18.966;2023-04-23T01:16:51;100002.98;;;7.01;72.26
77572;BME280;67214;47.454;18.966;2023-04-23T01:19:18;100009.02;;;7.04;72.09
77572;BME280;67214;47.454;18.966;2023-04-23T01:21:46;100000.35;;;7.01;72.23
77572;BME280;67214;47.454;18.966;2023-04-23T01:24:16;100001.41;;;6.99;72.80
77572;BME280;67214;47.454;18.966;2023-04-23T01:26:44;100005.77;;;6.93;72.54
77572;BME280;67214;47.454;18.966;2023-04-23T01:29:12;100002.83;;;6.97;72.14
77572;BME280;67214;47.454;18.966;2023-04-23T01:31:40;100003.42;;;6.95;72.14
77572;BME280;67214;47.454;18.966;2023-04-23T01:34:08;100011.73;;;6.89;72.80
77572;BME280;67214;47.454;18.966;2023-04-23T01:36:36;100010.53;;;6.88;72.39
77572;BME280;67214;47.454;18.966;2023-04-23T01:39:04;100002.94;;;6.83;72.59
77572;BME280;67214;47.454;18.966;2023-04-23T01:41:32;100001.83;;;6.80;72.95
77572;BME280;67214;47.454;18.966;2023-04-23T01:44:01;100000.35;;;6.76;73.37
77572;BME280;67214;47.454;18.966;2023-04-23T01:46:28;100008.09;;;6.72;73.96
77572;BME280;67214;47.454;18.966;2023-04-23T01:48:56;100001.38;;;6.74;73.70
77572;BME280;67214;47.454;18.966;2023-04-23T01:51:24;100003.85;;;6.70;73.77
77572;BME280;67214;47.454;18.966;2023-04-23T01:53:52;100002.75;;;6.67;73.81
77572;BME280;67214;47.454;18.966;2023-04-23T01:56:25;100002.49;;;6.64;73.92
77572;BME280;67214;47.454;18.966;2023-04-23T01:58:53;99989.97;;;6.61;73.41
77572;BME280;67214;47.454;18.966;2023-04-23T02:01:21;99994.13;;;6.58;73.18
77572;BME280;67214;47.454;18.966;2023-04-23T02:03:49;99998.38;;;6.60;72.69
77572;BME280;67214;47.454;18.966;2023-04-23T02:06:17;99997.22;;;6.64;72.86
77572;BME280;67214;47.454;18.966;2023-04-23T02:08:44;99999.95;;;6.63;72.75
77572;BME280;67214;47.454;18.966;2023-04-23T02:11:12;99994.93;;;6.65;72.60
77572;BME280;67214;47.454;18.966;2023-04-23T02:13:39;99992.68;;;6.66;72.79
77572;BME280;67214;47.454;18.966;2023-04-23T02:16:07;99998.84;;;6.60;73.15
77572;BME280;67214;47.454;18.966;2023-04-23T02:18:34;99993.23;;;6.51;74.02
77572;BME280;67214;47.454;18.966;2023-04-23T02:21:01;99993.92;;;6.48;73.76
77572;BME280;67214;47.454;18.966;2023-04-23T02:23:29;99989.68;;;6.45;73.95
77572;BME280;67214;47.454;18.966;2023-04-23T02:25:57;99992.06;;;6.43;73.58
77572;BME280;67214;47.454;18.966;2023-04-23T02:28:24;99975.70;;;6.38;73.47
77572;BME280;67214;47.454;18.966;2023-04-23T02:30:52;99992.23;;;6.40;73.61
77572;BME280;67214;47.454;18.966;2023-04-23T02:33:19;99976.55;;;6.38;73.54
77572;BME280;67214;47.454;18.966;2023-04-23T02:35:47;99989.81;;;6.37;73.45
77572;BME280;67214;47.454;18.966;2023-04-23T02:38:14;99981.36;;;6.32;74.14
77572;BME280;67214;47.454;18.966;2023-04-23T02:40:42;99981.95;;;6.30;74.47
77572;BME280;67214;47.454;18.966;2023-04-23T02:43:09;99976.09;;;6.32;74.28
77572;BME280;67214;47.454;18.966;2023-04-23T02:45:36;99981.78;;;6.26;74.47
77572;BME280;67214;47.454;18.966;2023-04-23T02:48:04;99979.83;;;6.22;74.99
77572;BME280;67214;47.454;18.966;2023-04-23T02:50:32;99986.11;;;6.20;75.37
77572;BME280;67214;47.454;18.966;2023-04-23T02:53:00;99977.23;;;6.15;75.48
77572;BME280;67214;47.454;18.966;2023-04-23T02:55:27;99983.26;;;6.10;75.45
77572;BME280;67214;47.454;18.966;2023-04-23T02:57:57;99978.92;;;6.09;75.55
77572;BME280;67214;47.454;18.966;2023-04-23T03:00:26;99983.94;;;6.06;75.60
77572;BME280;67214;47.454;18.966;2023-04-23T03:02:54;99976.59;;;6.04;75.53
77572;BME280;67214;47.454;18.966;2023-04-23T03:05:21;99982.44;;;6.02;75.83
77572;BME280;67214;47.454;18.966;2023-04-23T03:07:49;99973.70;;;6.02;75.94
77572;BME280;67214;47.454;18.966;2023-04-23T03:10:17;99978.67;;;5.99;75.70
77572;BME280;67214;47.454;18.966;2023-04-23T03:12:44;99973.99;;;5.97;75.61
77572;BME280;67214;47.454;18.966;2023-04-23T03:15:11;99975.52;;;5.94;75.77
77572;BME280;67214;47.454;18.966;2023-04-23T03:17:39;99968.17;;;5.92;75.43
77572;BME280;67214;47.454;18.966;2023-04-23T03:20:08;99979.63;;;5.91;75.68
77572;BME280;67214;47.454;18.966;2023-04-23T03:22:36;99973.44;;;5.92;76.10
77572;BME280;67214;47.454;18.966;2023-04-23T03:25:04;99973.38;;;5.87;76.42
77572;BME280;67214;47.454;18.966;2023-04-23T03:27:32;99975.22;;;5.85;76.26
77572;BME280;67214;47.454;18.966;2023-04-23T03:29:59;99974.37;;;5.84;75.40
77572;BME280;67214;47.454;18.966;2023-04-23T03:32:27;99975.80;;;5.83;75.17
77572;BME280;67214;47.454;18.966;2023-04-23T03:34:54;99968.72;;;5.83;74.94
77572;BME280;67214;47.454;18.966;2023-04-23T03:37:22;99975.50;;;5.80;75.04
77572;BME280;67214;47.454;18.966;2023-04-23T03:39:49;99980.68;;;5.82;74.99
77572;BME280;67214;47.454;18.966;2023-04-23T03:42:17;99975.42;;;5.82;74.85
77572;BME280;67214;47.454;18.966;2023-04-23T03:44:44;99979.83;;;5.81;75.25
77572;BME280;67214;47.454;18.966;2023-04-23T03:47:12;99980.85;;;5.79;75.70
77572;BME280;67214;47.454;18.966;2023-04-23T03:49:39;99982.08;;;5.80;75.99
77572;BME280;67214;47.454;18.966;2023-04-23T03:52:07;99986.91;;;5.74;75.76
77572;BME280;67214;47.454;18.966;2023-04-23T03:54:34;99980.03;;;5.71;75.40
77572;BME280;67214;47.454;18.966;2023-04-23T03:57:02;99984.27;;;5.67;75.55
77572;BME280;67214;47.454;18.966;2023-04-23T03:59:29;99986.91;;;5.74;75.41
77572;BME280;67214;47.454;18.966;2023-04-23T04:01:57;99969.98;;;5.78;75.33
77572;BME280;67214;47.454;18.966;2023-04-23T04:04:24;99985.36;;;5.84;75.84
77572;BME280;67214;47.454;18.966;2023-04-23T04:06:52;99984.64;;;5.89;75.41
77572;BME280;67214;47.454;18.966;2023-04-23T04:09:19;99991.86;;;5.92;75.02
77572;BME280;67214;47.454;18.966;2023-04-23T04:11:47;99990.16;;;5.91;74.73
77572;BME280;67214;47.454;18.966;2023-04-23T04:14:15;99994.89;;;5.86;75.43
77572;BME280;67214;47.454;18.966;2023-04-23T04:16:42;99995.80;;;5.92;75.86
77572;BME280;67214;47.454;18.966;2023-04-23T04:19:09;99994.23;;;5.90;76.03
77572;BME280;67214;47.454;18.966;2023-04-23T04:21:37;100001.48;;;5.86;76.29
77572;BME280;67214;47.454;18.966;2023-04-23T04:24:05;99996.86;;;5.90;75.92
77572;BME280;67214;47.454;18.966;2023-04-23T04:26:33;100006.13;;;5.95;75.36
77572;BME280;67214;47.454;18.966;2023-04-23T04:29:00;100008.82;;;6.08;75.02
77572;BME280;67214;47.454;18.966;2023-04-23T04:31:28;100009.34;;;6.20;74.42
77572;BME280;67214;47.454;18.966;2023-04-23T04:33:56;100007.70;;;6.32;73.45
77572;BME280;67214;47.454;18.966;2023-04-23T04:36:24;100003.19;;;6.34;73.10
77572;BME280;67214;47.454;18.966;2023-04-23T04:38:52;100006.55;;;6.43;73.01
77572;BME280;67214;47.454;18.966;2023-04-23T04:41:22;100004.64;;;6.45;73.13
77572;BME280;67214;47.454;18.966;2023-04-23T04:43:51;100005.02;;;6.46;73.33
77572;BME280;67214;47.454;18.966;2023-04-23T04:46:20;100004.34;;;6.49;73.77
77572;BME280;67214;47.454;18.966;2023-04-23T04:48:48;100009.89;;;6.52;73.45
77572;BME280;67214;47.454;18.966;2023-04-23T04:51:16;100003.82;;;6.57;72.85
77572;BME280;67214;47.454;18.966;2023-04-23T04:53:43;100017.10;;;6.75;73.06
77572;BME280;67214;47.454;18.966;2023-04-23T04:56:11;100014.25;;;6.78;72.62
77572;BME280;67214;47.454;18.966;2023-04-23T04:58:38;100008.37;;;6.87;72.23
77572;BME280;67214;47.454;18.966;2023-04-23T05:01:06;100006.62;;;6.93;71.89
77572;BME280;67214;47.454;18.966;2023-04-23T05:03:33;100011.27;;;7.03;71.96
77572;BME280;67214;47.454;18.966;2023-04-23T05:06:02;100014.45;;;7.08;72.52
77572;BME280;67214;47.454;18.966;2023-04-23T05:08:29;100010.91;;;7.14;71.61
77572;BME280;67214;47.454;18.966;2023-04-23T05:10:57;100018.66;;;7.23;71.76
77572;BME280;67214;47.454;18.966;2023-04-23T05:13:26;100017.28;;;7.30;71.77
77572;BME280;67214;47.454;18.966;2023-04-23T05:15:53;100012.97;;;7.41;70.68
77572;BME280;67214;47.454;18.966;2023-04-23T05:18:20;100009.95;;;7.53;70.49
77572;BME280;67214;47.454;18.966;2023-04-23T05:20:48;100015.30;;;7.64;69.87
77572;BME280;67214;47.454;18.966;2023-04-23T05:23:16;100014.48;;;7.82;69.47
77572;BME280;67214;47.454;18.966;2023-04-23T05:25:44;100016.96;;;7.96;69.05
77572;BME280;67214;47.454;18.966;2023-04-23T05:28:11;100024.55;;;8.19;68.91
77572;BME280;67214;47.454;18.966;2023-04-23T05:30:40;100015.91;;;8.35;68.20
77572;BME280;67214;47.454;18.966;2023-04-23T05:33:08;100012.26;;;8.54;67.73
77572;BME280;67214;47.454;18.966;2023-04-23T05:35:35;100015.20;;;8.73;67.02
77572;BME280;67214;47.454;18.966;2023-04-23T05:38:03;100004.34;;;9.06;66.11
77572;BME280;67214;47.454;18.966;2023-04-23T05:40:31;100010.98;;;9.33;65.54
77572;BME280;67214;47.454;18.966;2023-04-23T05:43:00;100012.94;;;9.48;65.17
77572;BME280;67214;47.454;18.966;2023-04-23T05:45:27;100013.28;;;9.71;64.27
77572;BME280;67214;47.454;18.966;2023-04-23T05:47:55;100012.56;;;9.86;64.12
77572;BME280;67214;47.454;18.966;2023-04-23T05:50:22;100016.12;;;10.07;63.46
77572;BME280;67214;47.454;18.966;2023-04-23T05:52:50;100014.78;;;10.24;63.20
77572;BME280;67214;47.454;18.966;2023-04-23T05:55:20;100022.84;;;10.39;62.80
77572;BME280;67214;47.454;18.966;2023-04-23T05:57:49;100014.68;;;10.57;62.67
77572;BME280;67214;47.454;18.966;2023-04-23T06:00:17;100009.78;;;10.73;62.24
77572;BME280;67214;47.454;18.966;2023-04-23T06:02:44;100016.16;;;10.97;61.97
77572;BME280;67214;47.454;18.966;2023-04-23T06:05:13;100012.17;;;11.18;61.36
77572;BME280;67214;47.454;18.966;2023-04-23T06:07:40;100011.55;;;11.41;61.76
77572;BME280;67214;47.454;18.966;2023-04-23T06:10:08;100015.78;;;11.68;59.28
77572;BME280;67214;47.454;18.966;2023-04-23T06:12:36;100017.20;;;11.87;58.37
77572;BME280;67214;47.454;18.966;2023-04-23T06:15:08;100018.17;;;12.11;58.65
77572;BME280;67214;47.454;18.966;2023-04-23T06:17:35;100018.50;;;12.37;57.15
77572;BME280;67214;47.454;18.966;2023-04-23T06:20:04;100004.51;;;12.64;56.01
77572;BME280;67214;47.454;18.966;2023-04-23T06:22:34;100011.23;;;12.87;54.18
77572;BME280;67214;47.454;18.966;2023-04-23T06:25:01;100008.50;;;13.12;52.92
77572;BME280;67214;47.454;18.966;2023-04-23T06:27:29;100009.65;;;13.32;52.76
77572;BME280;67214;47.454;18.966;2023-04-23T06:29:57;100013.41;;;13.53;51.18
77572;BME280;67214;47.454;18.966;2023-04-23T06:32:25;100019.23;;;13.76;51.16
77572;BME280;67214;47.454;18.966;2023-04-23T06:34:52;100009.16;;;13.97;50.88
77572;BME280;67214;47.454;18.966;2023-04-23T06:37:20;100017.40;;;14.17;49.41
77572;BME280;67214;47.454;18.966;2023-04-23T06:39:47;100010.13;;;14.37;49.38
77572;BME280;67214;47.454;18.966;2023-04-23T06:42:15;100013.63;;;14.55;48.92
77572;BME280;67214;47.454;18.966;2023-04-23T06:44:43;100004.65;;;14.74;48.87
77572;BME280;67214;47.454;18.966;2023-04-23T06:47:12;100001.12;;;14.91;46.52
77572;BME280;67214;47.454;18.966;2023-04-23T06:49:40;100011.09;;;15.07;46.69
77572;BME280;67214;47.454;18.966;2023-04-23T06:52:07;100000.49;;;15.19;46.82
77572;BME280;67214;47.454;18.966;2023-04-23T06:54:35;100005.09;;;15.34;47.91
77572;BME280;67214;47.454;18.966;2023-04-23T06:57:02;100000.05;;;15.53;46.27
77572;BME280;67214;47.454;18.966;2023-04-23T06:59:30;100005.18;;;15.72;45.74
77572;BME280;67214;47.454;18.966;2023-04-23T07:01:57;100001.25;;;15.93;45.49
77572;BME280;67214;47.454;18.966;2023-04-23T07:04:24;99998.42;;;16.02;44.47
77572;BME280;67214;47.454;18.966;2023-04-23T07:06:52;100000.35;;;16.22;46.12
77572;BME280;67214;47.454;18.966;2023-04-23T07:09:20;99996.17;;;16.36;44.14
77572;BME280;67214;47.454;18.966;2023-04-23T07:11:48;99998.23;;;16.50;46.08
77572;BME280;67214;47.454;18.966;2023-04-23T07:14:16;100005.12;;;16.64;44.33
77572;BME280;67214;47.454;18.966;2023-04-23T07:16:43;99990.24;;;16.74;44.92
77572;BME280;67214;47.454;18.966;2023-04-23T07:19:11;99989.25;;;16.87;44.67
77572;BME280;67214;47.454;18.966;2023-04-23T07:21:39;99991.39;;;16.96;44.77
77572;BME280;67214;47.454;18.966;2023-04-23T07:24:06;99992.72;;;17.08;43.74
77572;BME280;67214;47.454;18.966;2023-04-23T07:26:34;99987.19;;;17.17;43.43
77572;BME280;67214;47.454;18.966;2023-04-23T07:29:03;99990.20;;;17.23;43.04
77572;BME280;67214;47.454;18.966;2023-04-23T07:31:33;99993.52;;;17.33;43.35
77572;BME280;67214;47.454;18.966;2023-04-23T07:34:00;99988.83;;;17.39;43.51
77572;BME280;67214;47.454;18.966;2023-04-23T07:36:28;99987.30;;;17.44;43.59
77572;BME280;67214;47.454;18.966;2023-04-23T07:38:57;99982.44;;;17.52;43.83
77572;BME280;67214;47.454;18.966;2023-04-23T07:41:24;99989.31;;;17.58;42.43
77572;BME280;67214;47.454;18.966;2023-04-23T07:43:52;99985.39;;;17.73;43.64
77572;BME280;67214;47.454;18.966;2023-04-23T07:46:19;99985.32;;;17.89;43.00
77572;BME280;67214;47.454;18.966;2023-04-23T07:48:47;99980.93;;;18.00;40.76
77572;BME280;67214;47.454;18.966;2023-04-23T07:51:14;99987.58;;;18.13;41.61
77572;BME280;67214;47.454;18.966;2023-04-23T07:53:42;99981.05;;;18.07;40.64
77572;BME280;67214;47.454;18.966;2023-04-23T07:56:10;99985.75;;;18.09;40.06
77572;BME280;67214;47.454;18.966;2023-04-23T07:58:37;99983.09;;;18.05;40.92
77572;BME280;67214;47.454;18.966;2023-04-23T08:01:05;99986.09;;;18.37;40.42
77572;BME280;67214;47.454;18.966;2023-04-23T08:03:32;99979.30;;;18.53;39.88
77572;BME280;67214;47.454;18.966;2023-04-23T08:06:00;99977.94;;;18.76;39.32
77572;BME280;67214;47.454;18.966;2023-04-23T08:08:29;99962.05;;;18.89;37.81
77572;BME280;67214;47.454;18.966;2023-04-23T08:10:57;99962.59;;;19.03;37.43
77572;BME280;67214;47.454;18.966;2023-04-23T08:13:24;99971.43;;;19.26;36.28
77572;BME280;67214;47.454;18.966;2023-04-23T08:15:52;99975.45;;;19.45;34.35
77572;BME280;67214;47.454;18.966;2023-04-23T08:18:19;99974.91;;;19.49;36.02
77572;BME280;67214;47.454;18.966;2023-04-23T08:20:48;99972.50;;;19.55;33.80
77572;BME280;67214;47.454;18.966;2023-04-23T08:23:16;99975.96;;;19.44;35.00
77572;BME280;67214;47.454;18.966;2023-04-23T08:25:43;99963.37;;;19.60;34.12
77572;BME280;67214;47.454;18.966;2023-04-23T08:28:11;99971.52;;;19.66;34.07
77572;BME280;67214;47.454;18.966;2023-04-23T08:30:38;99974.03;;;19.68;34.94
77572;BME280;67214;47.454;18.966;2023-04-23T08:33:06;99965.94;;;19.82;34.83
77572;BME280;67214;47.454;18.966;2023-04-23T08:35:33;99966.72;;;19.87;34.92
77572;BME280;67214;47.454;18.966;2023-04-23T08:38:01;99965.89;;;20.12;37.85
77572;BME280;67214;47.454;18.966;2023-04-23T08:40:30;99961.45;;;20.04;35.36
77572;BME280;67214;47.454;18.966;2023-04-23T08:43:09;99964.19;;;20.25;34.30
77572;BME280;67214;47.454;18.966;2023-04-23T08:45:35;99967.09;;;20.34;35.14
77572;BME280;67214;47.454;18.966;2023-04-23T08:48:06;99967.12;;;20.20;34.50
77572;BME280;67214;47.454;18.966;2023-04-23T08:50:37;99964.28;;;20.32;35.95
77572;BME280;67214;47.454;18.966;2023-04-23T08:53:05;99954.78;;;20.47;36.40
77572;BME280;67214;47.454;18.966;2023-04-23T08:55:34;99944.02;;;20.57;34.37
77572;BME280;67214;47.454;18.966;2023-04-23T08:58:06;99944.38;;;20.75;34.90
77572;BME280;67214;47.454;18.966;2023-04-23T09:00:33;99940.99;;;20.77;34.50
77572;BME280;67214;47.454;18.966;2023-04-23T09:03:01;99939.36;;;20.83;33.90
77572;BME280;67214;47.454;18.966;2023-04-23T09:05:29;99942.50;;;20.97;33.91
77572;BME280;67214;47.454;18.966;2023-04-23T09:07:57;99938.02;;;20.94;34.81
77572;BME280;67214;47.454;18.966;2023-04-23T09:10:25;99939.42;;;21.28;32.20
77572;BME280;67214;47.454;18.966;2023-04-23T09:12:52;99937.78;;;21.27;32.92
77572;BME280;67214;47.454;18.966;2023-04-23T09:15:21;99934.59;;;21.34;32.20
77572;BME280;67214;47.454;18.966;2023-04-23T09:17:48;99935.54;;;21.37;33.26
77572;BME280;67214;47.454;18.966;2023-04-23T09:20:16;99931.30;;;21.39;32.73
77572;BME280;67214;47.454;18.966;2023-04-23T09:22:50;99930.81;;;21.63;33.52
77572;BME280;67214;47.454;18.966;2023-04-23T09:25:19;99928.78;;;21.71;34.23
77572;BME280;67214;47.454;18.966;2023-04-23T09:27:49;99929.07;;;21.72;31.79
77572;BME280;67214;47.454;18.966;2023-04-23T09:30:17;99921.86;;;21.79;32.72
77572;BME280;67214;47.454;18.966;2023-04-23T09:32:46;99929.88;;;22.01;33.34
77572;BME280;67214;47.454;18.966;2023-04-23T09:35:15;99917.44;;;22.13;32.92
77572;BME280;67214;47.454;18.966;2023-04-23T09:37:47;99924.71;;;22.19;31.07
77572;BME280;67214;47.454;18.966;2023-04-23T09:40:21;99930.66;;;22.25;29.45
77572;BME280;67214;47.454;18.966;2023-04-23T09:42:50;99917.57;;;22.42;32.95
77572;BME280;67214;47.454;18.966;2023-04-23T09:45:21;99921.95;;;22.36;30.44
77572;BME280;67214;47.454;18.966;2023-04-23T09:50:32;99913.22;;;21.56;31.05
77572;BME280;67214;47.454;18.966;2023-04-23T09:53:01;99916.98;;;22.03;31.07
77572;BME280;67214;47.454;18.966;2023-04-23T09:55:33;99916.22;;;22.29;31.49
77572;BME280;67214;47.454;18.966;2023-04-23T09:58:03;99909.61;;;22.57;30.08
77572;BME280;67214;47.454;18.966;2023-04-23T10:00:33;99911.81;;;22.71;28.72
77572;BME280;67214;47.454;18.966;2023-04-23T10:03:01;99900.18;;;22.77;29.75
77572;BME280;67214;47.454;18.966;2023-04-23T10:05:30;99905.02;;;22.51;29.81
77572;BME280;67214;47.454;18.966;2023-04-23T10:07:58;99902.86;;;22.70;30.09
77572;BME280;67214;47.454;18.966;2023-04-23T10:10:25;99895.59;;;22.71;29.06
77572;BME280;67214;47.454;18.966;2023-04-23T10:12:53;99894.84;;;22.60;29.34
77572;BME280;67214;47.454;18.966;2023-04-23T10:15:24;99887.16;;;22.83;29.11
77572;BME280;67214;47.454;18.966;2023-04-23T10:17:53;99884.95;;;23.09;30.02
77572;BME280;67214;47.454;18.966;2023-04-23T10:20:22;99886.92;;;22.58;29.21
77572;BME280;67214;47.454;18.966;2023-04-23T10:22:52;99889.04;;;22.89;27.26
77572;BME280;67214;47.454;18.966;2023-04-23T10:25:21;99875.48;;;23.09;28.31
77572;BME280;67214;47.454;18.966;2023-04-23T10:27:52;99878.02;;;23.33;26.95
77572;BME280;67214;47.454;18.966;2023-04-23T10:30:22;99875.94;;;22.80;26.83
77572;BME280;67214;47.454;18.966;2023-04-23T10:32:49;99878.62;;;23.06;27.48
77572;BME280;67214;47.454;18.966;2023-04-23T10:35:17;99867.94;;;23.24;28.42
77572;BME280;67214;47.454;18.966;2023-04-23T10:37:45;99876.14;;;23.46;27.97
77572;BME280;67214;47.454;18.966;2023-04-23T10:40:19;99879.67;;;23.76;26.93
77572;BME280;67214;47.454;18.966;2023-04-23T10:42:47;99873.92;;;23.52;27.22
77572;BME280;67214;47.454;18.966;2023-04-23T10:45:17;99873.67;;;23.67;26.85
77572;BME280;67214;47.454;18.966;2023-04-23T10:47:45;99870.98;;;23.83;26.23
77572;BME280;67214;47.454;18.966;2023-04-23T10:50:27;99862.94;;;23.85;24.87
77572;BME280;67214;47.454;18.966;2023-04-23T10:52:55;99872.42;;;23.85;26.16
77572;BME280;67214;47.454;18.966;2023-04-23T10:55:25;99856.86;;;24.12;25.20
77572;BME280;67214;47.454;18.966;2023-04-23T10:58:04;99858.38;;;24.24;25.62
77572;BME280;67214;47.454;18.966;2023-04-23T11:00:44;99865.19;;;24.58;25.69
77572;BME280;67214;47.454;18.966;2023-04-23T11:06:05;99856.57;;;24.92;24.00
77572;BME280;67214;47.454;18.966;2023-04-23T11:08:34;99859.78;;;25.34;23.38
77572;BME280;67214;47.454;18.966;2023-04-23T11:11:06;99859.78;;;25.34;23.38
77572;BME280;67214;47.454;18.966;2023-04-23T11:13:34;99859.69;;;25.32;22.51
77572;BME280;67214;47.454;18.966;2023-04-23T11:16:21;99861.19;;;25.19;24.29
77572;BME280;67214;47.454;18.966;2023-04-23T11:19:07;99834.69;;;24.53;23.01
77572;BME280;67214;47.454;18.966;2023-04-23T11:24:44;99822.67;;;25.01;24.61
77572;BME280;67214;47.454;18.966;2023-04-23T11:27:15;99850.56;;;25.08;22.93
77572;BME280;67214;47.454;18.966;2023-04-23T11:29:44;99835.63;;;25.35;24.46
77572;BME280;67214;47.454;18.966;2023-04-23T11:32:14;99837.01;;;25.63;23.06
77572;BME280;67214;47.454;18.966;2023-04-23T11:34:44;99816.86;;;25.34;23.33
77572;BME280;67214;47.454;18.966;2023-04-23T11:37:14;99816.86;;;25.34;23.33
77572;BME280;67214;47.454;18.966;2023-04-23T11:39:43;99831.05;;;25.18;23.20
77572;BME280;67214;47.454;18.966;2023-04-23T11:42:12;99811.61;;;24.44;22.78
77572;BME280;67214;47.454;18.966;2023-04-23T11:44:41;99838.95;;;24.76;23.77
77572;BME280;67214;47.454;18.966;2023-04-23T11:47:10;99835.48;;;24.44;24.17
77572;BME280;67214;47.454;18.966;2023-04-23T11:49:39;99827.05;;;25.02;24.15
77572;BME280;67214;47.454;18.966;2023-04-23T11:52:09;99831.55;;;24.99;23.40
77572;BME280;67214;47.454;18.966;2023-04-23T11:54:41;99821.44;;;24.63;23.16
77572;BME280;67214;47.454;18.966;2023-04-23T11:57:09;99831.03;;;24.75;24.17
77572;BME280;67214;47.454;18.966;2023-04-23T11:59:37;99819.73;;;24.69;24.18
77572;BME280;67214;47.454;18.966;2023-04-23T12:02:04;99814.52;;;25.19;23.19
77572;BME280;67214;47.454;18.966;2023-04-23T12:04:32;99810.94;;;25.73;23.19
77572;BME280;67214;47.454;18.966;2023-04-23T12:06:59;99810.95;;;26.15;23.13
77572;BME280;67214;47.454;18.966;2023-04-23T12:09:28;99803.58;;;26.45;23.19
77572;BME280;67214;47.454;18.966;2023-04-23T12:11:56;99803.70;;;26.50;23.35
77572;BME280;67214;47.454;18.966;2023-04-23T12:14:28;99805.77;;;26.46;23.34
77572;BME280;67214;47.454;18.966;2023-04-23T12:16:57;99797.55;;;26.66;23.29
77572;BME280;67214;47.454;18.966;2023-04-23T12:19:29;99795.47;;;26.24;23.65
77572;BME280;67214;47.454;18.966;2023-04-23T12:22:02;99793.68;;;25.50;23.97
77572;BME280;67214;47.454;18.966;2023-04-23T12:24:43;99801.19;;;25.18;24.94
77572;BME280;67214;47.454;18.966;2023-04-23T12:27:00;99798.52;;;25.57;23.53
77572;BME280;67214;47.454;18.966;2023-04-23T12:29:29;99791.41;;;25.95;24.60
77572;BME280;67214;47.454;18.966;2023-04-23T12:32:00;99784.47;;;26.19;23.02
77572;BME280;67214;47.454;18.966;2023-04-23T12:34:28;99787.73;;;26.42;23.76
77572;BME280;67214;47.454;18.966;2023-04-23T12:36:55;99786.38;;;26.01;23.02
77572;BME280;67214;47.454;18.966;2023-04-23T12:39:28;99778.08;;;26.37;23.63
77572;BME280;67214;47.454;18.966;2023-04-23T12:42:04;99774.98;;;26.77;20.94
77572;BME280;67214;47.454;18.966;2023-04-23T12:44:34;99776.88;;;26.89;21.47
77572;BME280;67214;47.454;18.966;2023-04-23T12:47:03;99774.56;;;26.60;22.06
77572;BME280;67214;47.454;18.966;2023-04-23T12:49:34;99772.78;;;26.77;25.06
77572;BME280;67214;47.454;18.966;2023-04-23T12:52:03;99765.78;;;27.30;22.92
77572;BME280;67214;47.454;18.966;2023-04-23T12:54:36;99759.36;;;27.22;22.57
77572;BME280;67214;47.454;18.966;2023-04-23T12:57:13;99760.00;;;26.31;22.88
77572;BME280;67214;47.454;18.966;2023-04-23T12:59:37;99757.41;;;25.83;23.80
77572;BME280;67214;47.454;18.966;2023-04-23T13:02:05;99755.80;;;25.84;24.20
77572;BME280;67214;47.454;18.966;2023-04-23T13:04:34;99759.19;;;26.65;23.31